Terminal Aerodrome Forecast
Issued by NWS Newport/Morehead City, NC

Home | Current Version | Previous Version | Graphics & Text | Print | Product List | Glossary On
Versions: 1 2 3 4 5 6 7 8 9 10 11 12 13 14 15 16 17 18 19 20
000
FTUS42 KMHX 231136 AAA
TAFEWN
TAF AMD
KEWN 231136Z 2312/2412 17005KT 6SM -SHRA BR BKN040 OVC080
      TEMPO 2312/2314 3SM BR
     FM231900 20010KT 6SM SHRA OVC035
     FM232200 21010KT 6SM SHRA OVC025
     FM240000 22010KT 6SM -SHRA OVC025
     FM240200 22005KT 6SM -SHRA OVC015
     FM240900 24005KT 6SM -SHRA OVC003=

USA.gov is the U.S. government's official web portal to all federal, state and local government web resources and services.